createdAt,value
2022-10-13T00:00:29.486Z,94.20
2022-10-13T00:02:55.792Z,94.40
2022-10-13T00:05:22.124Z,94.31
2022-10-13T00:07:48.484Z,94.36
2022-10-13T00:10:14.803Z,94.33
2022-10-13T00:12:41.134Z,94.82
2022-10-13T00:15:08.734Z,94.37
2022-10-13T00:17:35.491Z,94.49
2022-10-13T00:20:03.118Z,94.31
2022-10-13T00:22:29.434Z,94.77
2022-10-13T00:24:55.783Z,94.95
2022-10-13T00:27:22.091Z,95.04
2022-10-13T00:29:48.431Z,94.99
2022-10-13T00:32:15.162Z,94.75
2022-10-13T00:34:41.525Z,94.90
2022-10-13T00:37:07.908Z,94.81
2022-10-13T00:39:34.302Z,94.88
2022-10-13T00:42:00.813Z,94.84
2022-10-13T00:45:12.157Z,94.53
2022-10-13T00:47:41.433Z,94.67
2022-10-13T00:50:14.463Z,94.91
2022-10-13T00:52:41.981Z,95.26
2022-10-13T00:55:10.104Z,95.50
2022-10-13T00:57:39.938Z,95.83
2022-10-13T01:00:07.151Z,95.81
2022-10-13T01:02:37.299Z,95.67
2022-10-13T01:05:05.771Z,95.69
2022-10-13T01:07:32.734Z,95.77
2022-10-13T01:09:59.361Z,95.61
2022-10-13T01:12:46.231Z,95.47
2022-10-13T01:15:35.242Z,95.60
2022-10-13T01:18:20.832Z,95.44
2022-10-13T01:21:02.384Z,94.99
2022-10-13T01:23:47.495Z,94.91
2022-10-13T01:26:35.487Z,95.26
2022-10-13T01:29:34.607Z,95.27
2022-10-13T01:32:14.515Z,95.46
2022-10-13T01:34:46.249Z,95.57
2022-10-13T01:37:46.275Z,95.78
2022-10-13T01:40:21.330Z,96.01
2022-10-13T01:43:01.047Z,95.96
2022-10-13T01:45:37.950Z,95.98
2022-10-13T01:48:07.223Z,96.11
2022-10-13T01:50:35.948Z,96.12
2022-10-13T01:53:05.058Z,96.08
2022-10-13T01:55:31.478Z,96.21
2022-10-13T01:57:58.087Z,96.49
2022-10-13T02:00:24.917Z,96.55
2022-10-13T02:03:21.406Z,96.79
2022-10-13T02:06:10.304Z,97.03
2022-10-13T02:08:46.019Z,97.14
2022-10-13T02:11:16.103Z,97.20
2022-10-13T02:13:53.440Z,97.11
2022-10-13T02:16:20.695Z,97.10
2022-10-13T02:18:47.746Z,97.37
2022-10-13T02:21:17.131Z,97.32
2022-10-13T02:23:44.594Z,97.09
2022-10-13T02:26:11.142Z,96.78
2022-10-13T02:28:38.199Z,97.32
2022-10-13T02:31:05.272Z,97.22
2022-10-13T02:33:31.608Z,97.46
2022-10-13T02:35:57.968Z,97.24
2022-10-13T02:38:24.292Z,97.36
2022-10-13T02:40:50.631Z,97.49
2022-10-13T02:43:17.048Z,97.33
2022-10-13T02:45:43.394Z,97.29
2022-10-13T02:48:09.830Z,97.37
2022-10-13T02:50:36.171Z,97.50
2022-10-13T02:53:02.539Z,97.61
2022-10-13T02:55:28.846Z,97.55
2022-10-13T02:57:55.235Z,97.38
2022-10-13T03:00:21.574Z,97.43
2022-10-13T03:02:47.909Z,97.40
2022-10-13T03:05:14.256Z,97.31
2022-10-13T03:07:40.572Z,97.16
2022-10-13T03:10:07.239Z,97.14
2022-10-13T03:12:33.558Z,97.08
2022-10-13T03:14:59.987Z,96.91
2022-10-13T03:17:26.626Z,96.90
2022-10-13T03:19:52.985Z,97.11
2022-10-13T03:22:19.590Z,97.09
2022-10-13T03:24:46.059Z,96.89
2022-10-13T03:27:12.576Z,97.14
2022-10-13T03:29:38.929Z,96.83
2022-10-13T03:32:05.514Z,96.72
2022-10-13T03:34:31.915Z,96.94
2022-10-13T03:36:58.261Z,96.58
2022-10-13T03:39:24.663Z,96.84
2022-10-13T03:41:50.974Z,96.76
2022-10-13T03:44:17.292Z,96.88
2022-10-13T03:46:43.623Z,96.44
2022-10-13T03:49:11.560Z,96.54
2022-10-13T03:51:38.422Z,96.65
2022-10-13T03:54:04.787Z,96.72
2022-10-13T03:56:31.439Z,96.77
2022-10-13T03:58:59.917Z,97.01
2022-10-13T04:01:29.255Z,96.91
2022-10-13T04:03:57.121Z,96.65
2022-10-13T04:06:25.315Z,96.54
2022-10-13T04:08:51.776Z,96.77
2022-10-13T04:11:18.849Z,96.52
2022-10-13T04:13:45.395Z,96.25
2022-10-13T04:16:23.092Z,95.98
2022-10-13T04:19:16.201Z,95.98
2022-10-13T04:21:43.364Z,96.12
2022-10-13T04:24:12.109Z,96.14
2022-10-13T04:26:39.543Z,96.02
2022-10-13T04:29:07.541Z,96.02
2022-10-13T04:31:34.307Z,96.12
2022-10-13T04:34:00.675Z,96.38
2022-10-13T04:36:27.560Z,96.27
2022-10-13T04:38:55.074Z,96.15
2022-10-13T04:41:22.431Z,95.93
2022-10-13T04:43:50.085Z,95.81
2022-10-13T04:46:22.557Z,95.26
2022-10-13T04:48:49.221Z,95.26
2022-10-13T04:51:18.673Z,95.32
2022-10-13T04:53:45.666Z,95.22
2022-10-13T04:56:17.035Z,94.98
2022-10-13T04:58:45.543Z,95.01
2022-10-13T05:01:21.473Z,94.95
2022-10-13T05:03:53.528Z,95.44
2022-10-13T05:06:23.079Z,95.68
2022-10-13T05:08:49.955Z,95.52
2022-10-13T05:11:16.801Z,95.21
2022-10-13T05:13:43.432Z,95.20
2022-10-13T05:16:11.535Z,95.26
2022-10-13T05:18:37.844Z,95.28
2022-10-13T05:21:12.998Z,95.51
2022-10-13T05:23:39.842Z,95.22
2022-10-13T05:26:12.388Z,95.19
2022-10-13T05:28:39.570Z,95.43
2022-10-13T05:31:20.612Z,95.61
2022-10-13T05:33:48.246Z,96.03
2022-10-13T05:36:20.503Z,95.88
2022-10-13T05:39:00.836Z,95.32
2022-10-13T05:41:28.386Z,94.92
2022-10-13T05:43:57.849Z,94.63
2022-10-13T05:46:24.642Z,94.84
2022-10-13T05:48:51.088Z,94.50
2022-10-13T05:51:20.983Z,94.63
2022-10-13T05:53:57.812Z,94.76
2022-10-13T05:56:29.794Z,94.99
2022-10-13T05:59:07.925Z,95.08
2022-10-13T06:01:39.679Z,95.15
2022-10-13T06:04:17.347Z,94.86
2022-10-13T06:06:43.993Z,94.65
2022-10-13T06:09:10.662Z,94.13
2022-10-13T06:11:36.961Z,94.05
2022-10-13T06:14:03.415Z,93.73
2022-10-13T06:16:29.758Z,93.09
2022-10-13T06:18:56.076Z,92.62
2022-10-13T06:21:22.375Z,92.77
2022-10-13T06:23:48.690Z,92.40
2022-10-13T06:26:15.003Z,92.46
2022-10-13T06:28:42.660Z,92.14
2022-10-13T06:31:11.464Z,92.25
2022-10-13T06:33:37.909Z,92.07
2022-10-13T06:36:05.689Z,92.03
2022-10-13T06:38:33.128Z,91.66
2022-10-13T06:41:03.679Z,91.30
2022-10-13T06:43:35.967Z,91.47
2022-10-13T06:46:07.317Z,91.91
2022-10-13T06:48:33.651Z,91.40
2022-10-13T06:51:08.754Z,91.25
2022-10-13T06:53:35.303Z,91.43
2022-10-13T06:56:04.010Z,91.17
2022-10-13T06:58:30.395Z,90.81
2022-10-13T07:00:57.110Z,90.50
2022-10-13T07:03:23.582Z,90.59
2022-10-13T07:05:49.918Z,90.68
2022-10-13T07:08:16.231Z,90.66
2022-10-13T07:10:43.097Z,90.64
2022-10-13T07:13:09.518Z,90.53
2022-10-13T07:15:40.124Z,90.14
2022-10-13T07:18:07.085Z,90.19
2022-10-13T07:20:34.286Z,89.72
2022-10-13T07:23:00.891Z,88.91
2022-10-13T07:25:27.285Z,88.22
2022-10-13T07:27:53.602Z,88.00
2022-10-13T07:30:19.919Z,87.56
2022-10-13T07:32:46.283Z,87.31
2022-10-13T07:35:12.604Z,87.19
2022-10-13T07:37:39.244Z,86.76
2022-10-13T07:40:06.532Z,86.56
2022-10-13T07:42:33.264Z,86.86
2022-10-13T07:44:59.642Z,87.07
2022-10-13T07:47:26.046Z,86.65
2022-10-13T07:49:52.463Z,85.87
2022-10-13T07:52:19.052Z,85.11
2022-10-13T07:54:45.640Z,85.01
2022-10-13T07:57:11.981Z,84.67
2022-10-13T07:59:38.369Z,84.12
2022-10-13T08:02:04.743Z,83.82
2022-10-13T08:04:33.042Z,82.52
2022-10-13T08:06:59.682Z,81.96
2022-10-13T08:09:26.847Z,81.36
2022-10-13T08:11:54.678Z,81.11
2022-10-13T08:14:24.100Z,80.47
2022-10-13T08:16:53.017Z,80.20
2022-10-13T08:19:20.476Z,80.58
2022-10-13T08:22:01.999Z,80.33
2022-10-13T08:24:28.433Z,78.90
2022-10-13T08:26:54.862Z,78.25
2022-10-13T08:29:22.967Z,78.04
2022-10-13T08:31:52.586Z,77.36
2022-10-13T08:34:19.442Z,77.75
2022-10-13T08:36:45.971Z,78.46
2022-10-13T08:39:12.287Z,78.61
2022-10-13T08:41:42.151Z,79.12
2022-10-13T08:45:02.622Z,79.65
2022-10-13T08:47:18.891Z,81.27
2022-10-13T08:49:45.357Z,81.13
2022-10-13T08:52:18.812Z,80.21
2022-10-13T08:54:45.493Z,79.83
2022-10-13T08:57:12.026Z,79.49
2022-10-13T08:59:38.339Z,79.21
2022-10-13T09:02:22.085Z,78.50
2022-10-13T09:04:52.135Z,78.55
2022-10-13T09:07:23.250Z,79.12
2022-10-13T09:09:54.569Z,78.07
2022-10-13T09:12:23.020Z,77.16
2022-10-13T09:15:04.431Z,76.02
2022-10-13T09:17:31.761Z,75.06
2022-10-13T09:20:19.351Z,74.56
2022-10-13T09:23:01.924Z,73.33
2022-10-13T09:25:28.632Z,73.61
2022-10-13T09:27:58.481Z,73.37
2022-10-13T09:30:42.729Z,72.61
2022-10-13T09:33:09.008Z,71.70
2022-10-13T09:35:39.570Z,70.98
2022-10-13T09:38:10.715Z,70.79
2022-10-13T09:40:37.658Z,69.44
2022-10-13T09:43:25.002Z,68.96
2022-10-13T09:45:51.423Z,68.09
2022-10-13T09:48:24.091Z,67.98
2022-10-13T09:50:53.244Z,67.33
2022-10-13T09:53:28.498Z,68.00
2022-10-13T09:56:21.335Z,68.31
2022-10-13T09:59:15.590Z,68.82
2022-10-13T10:01:46.084Z,69.82
2022-10-13T10:04:34.940Z,70.05
2022-10-13T10:07:14.805Z,70.44
2022-10-13T10:09:57.822Z,71.16
2022-10-13T10:12:30.926Z,71.58
2022-10-13T10:14:57.222Z,70.65
2022-10-13T10:17:28.152Z,70.43
2022-10-13T10:20:28.736Z,69.36
2022-10-13T10:23:03.765Z,67.88
2022-10-13T10:25:37.813Z,67.63
2022-10-13T10:28:18.996Z,66.93
2022-10-13T10:31:00.350Z,66.86
2022-10-13T10:33:37.394Z,67.05
2022-10-13T10:36:13.055Z,67.99
2022-10-13T10:39:02.458Z,67.51
2022-10-13T10:41:41.030Z,68.44
2022-10-13T10:44:15.658Z,67.60
2022-10-13T10:46:54.626Z,67.55
2022-10-13T10:49:30.123Z,67.30
2022-10-13T10:51:57.752Z,67.35
2022-10-13T10:54:46.682Z,67.36
2022-10-13T10:57:27.694Z,67.84
2022-10-13T11:00:13.454Z,67.72
2022-10-13T11:02:58.442Z,67.93
2022-10-13T11:05:24.858Z,67.79
2022-10-13T11:07:51.127Z,68.19
2022-10-13T11:10:19.286Z,68.48
2022-10-13T11:13:04.276Z,68.58
2022-10-13T11:15:45.371Z,68.71
2022-10-13T11:18:49.041Z,68.20
2022-10-13T11:21:15.415Z,69.18
2022-10-13T11:23:47.814Z,69.20
2022-10-13T11:26:29.892Z,68.89
2022-10-13T11:28:56.574Z,68.37
2022-10-13T11:31:29.744Z,68.29
2022-10-13T11:34:01.101Z,67.41
2022-10-13T11:36:51.346Z,66.57
2022-10-13T11:39:42.765Z,66.24
2022-10-13T11:42:11.800Z,65.59
2022-10-13T11:45:04.545Z,65.45
2022-10-13T11:47:55.777Z,66.17
2022-10-13T11:50:42.591Z,65.63
2022-10-13T11:53:31.353Z,66.47
2022-10-13T11:55:59.540Z,65.59
2022-10-13T11:58:29.446Z,66.15
2022-10-13T12:01:12.600Z,65.92
2022-10-13T12:03:41.820Z,66.19
2022-10-13T12:06:33.465Z,65.59
2022-10-13T12:09:18.507Z,64.99
2022-10-13T12:11:45.712Z,65.08
2022-10-13T12:14:27.399Z,64.86
2022-10-13T12:16:58.930Z,64.27
2022-10-13T12:19:27.876Z,63.60
2022-10-13T12:22:00.018Z,62.09
2022-10-13T12:24:29.317Z,62.58
2022-10-13T12:26:56.630Z,62.51
2022-10-13T12:29:31.076Z,61.37
2022-10-13T12:31:59.863Z,60.47
2022-10-13T12:34:28.726Z,61.04
2022-10-13T12:37:03.612Z,59.47
2022-10-13T12:39:31.551Z,59.69
2022-10-13T12:41:59.638Z,59.49
2022-10-13T12:44:28.775Z,60.90
2022-10-13T12:46:57.352Z,59.56
2022-10-13T12:49:25.875Z,59.89
2022-10-13T12:52:03.802Z,60.74
2022-10-13T12:54:36.147Z,60.88
2022-10-13T12:57:14.592Z,60.62
2022-10-13T12:59:42.499Z,59.20
2022-10-13T13:02:27.686Z,59.55
2022-10-13T13:04:54.047Z,59.02
2022-10-13T13:07:30.649Z,59.34
2022-10-13T13:10:08.987Z,58.52
2022-10-13T13:12:36.979Z,58.01
2022-10-13T13:15:24.995Z,58.26
2022-10-13T13:17:58.408Z,58.45
2022-10-13T13:20:31.662Z,58.43
2022-10-13T13:22:58.928Z,58.58
2022-10-13T13:25:25.977Z,59.07
2022-10-13T13:27:53.037Z,59.10
2022-10-13T13:30:22.006Z,59.13
2022-10-13T13:32:48.426Z,58.90
2022-10-13T13:35:14.897Z,59.66
2022-10-13T13:37:46.631Z,59.71
2022-10-13T13:40:21.984Z,61.06
2022-10-13T13:42:48.665Z,61.46
2022-10-13T13:45:16.660Z,62.03
2022-10-13T13:47:43.454Z,62.83
2022-10-13T13:50:24.855Z,62.46
2022-10-13T13:52:51.441Z,63.04
2022-10-13T13:55:18.137Z,63.37
2022-10-13T13:57:44.655Z,63.67
2022-10-13T14:00:12.997Z,63.76
2022-10-13T14:02:40.145Z,64.61
2022-10-13T14:05:06.615Z,64.37
2022-10-13T14:07:33.138Z,64.81
2022-10-13T14:10:02.017Z,65.01
2022-10-13T14:12:30.163Z,64.38
2022-10-13T14:14:56.684Z,64.43
2022-10-13T14:17:23.164Z,64.60
2022-10-13T14:19:49.479Z,63.72
2022-10-13T14:22:15.842Z,64.17
2022-10-13T14:24:42.241Z,64.20
2022-10-13T14:27:08.598Z,65.89
2022-10-13T14:29:35.891Z,65.23
2022-10-13T14:32:02.959Z,65.50
2022-10-13T14:34:29.558Z,65.26
2022-10-13T14:36:55.879Z,66.12
2022-10-13T14:39:22.254Z,66.30
2022-10-13T14:41:48.560Z,65.61
2022-10-13T14:44:14.841Z,65.91
2022-10-13T14:46:41.290Z,65.71
2022-10-13T14:49:07.634Z,66.27
2022-10-13T14:51:33.975Z,66.62
2022-10-13T14:54:00.312Z,66.63
2022-10-13T14:56:28.649Z,66.72
2022-10-13T14:58:57.886Z,66.31
2022-10-13T15:01:24.564Z,65.46
2022-10-13T15:03:50.973Z,64.31
2022-10-13T15:06:23.225Z,64.46
2022-10-13T15:08:50.224Z,64.02
2022-10-13T15:11:18.328Z,64.74
2022-10-13T15:13:44.685Z,65.07
2022-10-13T15:16:23.191Z,65.59
2022-10-13T15:18:49.803Z,65.99
2022-10-13T15:21:16.967Z,66.19
2022-10-13T15:23:44.239Z,65.31
2022-10-13T15:26:12.733Z,64.79
2022-10-13T15:28:44.987Z,66.21
2022-10-13T15:31:12.157Z,65.87
2022-10-13T15:33:38.792Z,65.75
2022-10-13T15:36:05.270Z,65.94
2022-10-13T15:38:31.633Z,65.95
2022-10-13T15:41:01.690Z,65.83
2022-10-13T15:43:28.343Z,66.43
2022-10-13T15:45:59.300Z,66.71
2022-10-13T15:48:26.034Z,67.10
2022-10-13T15:50:52.351Z,67.50
2022-10-13T15:53:19.141Z,67.82
2022-10-13T15:55:46.296Z,68.46
2022-10-13T15:58:13.831Z,69.64
2022-10-13T16:00:41.400Z,70.41
2022-10-13T16:03:08.015Z,71.27
2022-10-13T16:05:34.346Z,71.52
2022-10-13T16:08:00.658Z,72.26
2022-10-13T16:10:26.957Z,73.01
2022-10-13T16:12:53.273Z,73.35
2022-10-13T16:15:19.591Z,74.05
2022-10-13T16:17:45.883Z,76.11
2022-10-13T16:20:12.325Z,76.45
2022-10-13T16:22:38.651Z,76.85
2022-10-13T16:25:05.376Z,77.88
2022-10-13T16:27:32.194Z,78.38
2022-10-13T16:29:58.594Z,78.53
2022-10-13T16:32:24.963Z,79.11
2022-10-13T16:34:51.294Z,79.63
2022-10-13T16:37:17.885Z,80.04
2022-10-13T16:39:47.792Z,80.49
2022-10-13T16:42:17.655Z,81.45
2022-10-13T16:44:43.971Z,81.86
2022-10-13T16:47:12.628Z,82.36
2022-10-13T16:49:42.315Z,82.90
2022-10-13T16:52:08.623Z,83.53
2022-10-13T16:54:34.926Z,84.09
2022-10-13T16:57:01.277Z,84.25
2022-10-13T16:59:27.715Z,84.70
2022-10-13T17:01:54.180Z,85.42
2022-10-13T17:04:22.254Z,86.32
2022-10-13T17:06:48.750Z,86.91
2022-10-13T17:09:15.282Z,87.81
2022-10-13T17:11:41.775Z,88.40
2022-10-13T17:14:09.340Z,88.84
2022-10-13T17:16:35.725Z,89.00
2022-10-13T17:19:03.002Z,89.23
2022-10-13T17:21:29.613Z,89.89
2022-10-13T17:23:56.295Z,90.46
2022-10-13T17:26:23.548Z,90.66
2022-10-13T17:28:50.148Z,90.46
2022-10-13T17:31:22.460Z,90.64
2022-10-13T17:33:50.241Z,90.62
2022-10-13T17:36:21.219Z,90.91
2022-10-13T17:38:49.022Z,91.04
2022-10-13T17:41:16.605Z,91.27
2022-10-13T17:43:42.975Z,91.42
2022-10-13T17:46:39.899Z,91.43
2022-10-13T17:49:00.434Z,91.60
2022-10-13T17:51:27.116Z,91.54
2022-10-13T17:53:53.784Z,91.47
2022-10-13T17:56:24.327Z,91.76
2022-10-13T17:58:51.434Z,91.54
2022-10-13T18:01:19.381Z,91.62
2022-10-13T18:03:47.386Z,91.54
2022-10-13T18:06:14.589Z,91.59
2022-10-13T18:08:41.617Z,91.61
2022-10-13T18:11:14.061Z,91.62
2022-10-13T18:13:41.828Z,91.74
2022-10-13T18:16:14.499Z,92.18
2022-10-13T18:18:41.918Z,92.24
2022-10-13T18:21:08.269Z,92.17
2022-10-13T18:23:36.429Z,92.22
2022-10-13T18:26:08.547Z,92.48
2022-10-13T18:28:36.619Z,92.45
2022-10-13T18:31:08.993Z,92.54
2022-10-13T18:33:35.707Z,92.56
2022-10-13T18:36:13.390Z,92.16
2022-10-13T18:38:39.716Z,92.15
2022-10-13T18:41:06.213Z,91.92
2022-10-13T18:43:32.713Z,91.96
2022-10-13T18:46:02.826Z,91.90
2022-10-13T18:48:29.450Z,91.97
2022-10-13T18:50:55.850Z,92.15
2022-10-13T18:53:23.051Z,92.40
2022-10-13T18:55:49.386Z,92.48
2022-10-13T18:58:15.790Z,92.86
2022-10-13T19:00:42.213Z,92.80
2022-10-13T19:03:08.593Z,92.70
2022-10-13T19:05:38.026Z,92.73
2022-10-13T19:08:04.618Z,92.80
2022-10-13T19:10:31.024Z,92.83
2022-10-13T19:12:57.361Z,93.02
2022-10-13T19:15:23.751Z,93.14
2022-10-13T19:17:50.095Z,93.24
2022-10-13T19:20:16.573Z,93.44
2022-10-13T19:22:42.984Z,93.83
2022-10-13T19:25:09.599Z,94.06
2022-10-13T19:27:36.002Z,94.46
2022-10-13T19:30:02.412Z,94.55
2022-10-13T19:32:28.768Z,94.75
2022-10-13T19:34:55.227Z,94.45
2022-10-13T19:37:21.966Z,94.46
2022-10-13T19:39:48.732Z,94.21
2022-10-13T19:42:15.084Z,94.17
2022-10-13T19:44:41.444Z,94.19
2022-10-13T19:47:07.812Z,94.37
2022-10-13T19:49:34.129Z,94.32
2022-10-13T19:52:00.548Z,94.16
2022-10-13T19:54:31.476Z,94.25
2022-10-13T19:56:59.365Z,94.45
2022-10-13T19:59:25.787Z,94.44
2022-10-13T20:01:52.162Z,94.60
2022-10-13T20:04:18.729Z,94.73
2022-10-13T20:06:45.106Z,94.74
2022-10-13T20:09:11.560Z,94.81
2022-10-13T20:11:38.085Z,94.96
2022-10-13T20:14:04.566Z,95.10
2022-10-13T20:16:31.049Z,95.23
2022-10-13T20:18:59.395Z,95.02
2022-10-13T20:21:27.471Z,94.79
2022-10-13T20:23:54.225Z,94.61
2022-10-13T20:26:20.936Z,94.68
2022-10-13T20:28:49.104Z,94.74
2022-10-13T20:31:17.668Z,94.69
2022-10-13T20:33:44.365Z,94.45
2022-10-13T20:36:13.067Z,94.96
2022-10-13T20:38:39.495Z,95.06
2022-10-13T20:41:18.487Z,95.19
2022-10-13T20:43:45.832Z,95.19
2022-10-13T20:46:12.609Z,95.31
2022-10-13T20:49:08.880Z,95.11
2022-10-13T20:51:27.729Z,95.02
2022-10-13T20:53:54.054Z,94.98
2022-10-13T20:56:23.391Z,94.82
2022-10-13T20:58:50.905Z,95.11
2022-10-13T21:01:18.698Z,95.01
2022-10-13T21:03:45.170Z,95.10
2022-10-13T21:06:13.538Z,95.15
2022-10-13T21:08:40.383Z,94.86
2022-10-13T21:11:12.126Z,94.54
2022-10-13T21:13:41.167Z,94.55
2022-10-13T21:16:12.684Z,95.12
2022-10-13T21:18:39.195Z,95.43
2022-10-13T21:21:07.814Z,95.25
2022-10-13T21:23:34.500Z,95.16
2022-10-13T21:26:05.554Z,95.28
2022-10-13T21:28:32.662Z,95.47
2022-10-13T21:31:10.614Z,95.69
2022-10-13T21:33:38.598Z,95.96
2022-10-13T21:36:13.966Z,96.13
2022-10-13T21:38:41.092Z,96.50
2022-10-13T21:41:09.022Z,96.64
2022-10-13T21:43:35.572Z,96.69
2022-10-13T21:46:11.343Z,96.63
2022-10-13T21:48:37.961Z,96.99
2022-10-13T21:51:14.377Z,97.19
2022-10-13T21:53:40.832Z,97.23
2022-10-13T21:56:08.908Z,97.19
2022-10-13T21:58:35.690Z,97.23
2022-10-13T22:01:02.580Z,97.28
2022-10-13T22:03:29.488Z,97.41
2022-10-13T22:05:55.942Z,97.38
2022-10-13T22:08:32.845Z,97.29
2022-10-13T22:11:04.551Z,97.31
2022-10-13T22:13:31.567Z,97.29
2022-10-13T22:16:04.609Z,97.17
2022-10-13T22:18:30.913Z,97.11
2022-10-13T22:21:01.329Z,97.16
2022-10-13T22:23:27.843Z,97.35
2022-10-13T22:25:54.198Z,97.07
2022-10-13T22:28:21.548Z,97.00
2022-10-13T22:30:48.130Z,96.83
2022-10-13T22:33:14.537Z,97.03
2022-10-13T22:35:40.844Z,97.09
2022-10-13T22:38:07.216Z,97.10
2022-10-13T22:40:33.511Z,97.14
2022-10-13T22:42:59.836Z,97.22
2022-10-13T22:45:26.201Z,97.39
2022-10-13T22:47:52.574Z,97.37
2022-10-13T22:50:19.013Z,97.31
2022-10-13T22:52:45.595Z,97.31
2022-10-13T22:55:12.305Z,97.24
2022-10-13T22:57:38.613Z,97.19
2022-10-13T23:00:05.536Z,97.33
2022-10-13T23:02:31.870Z,97.33
2022-10-13T23:04:58.163Z,97.36
2022-10-13T23:07:24.605Z,97.42
2022-10-13T23:09:50.914Z,97.37
2022-10-13T23:12:17.266Z,97.44
2022-10-13T23:14:43.592Z,97.31
2022-10-13T23:17:09.917Z,97.42
2022-10-13T23:19:36.277Z,97.44
2022-10-13T23:22:02.593Z,97.48
2022-10-13T23:24:30.170Z,97.52
2022-10-13T23:26:56.506Z,97.12
2022-10-13T23:29:22.822Z,97.12
2022-10-13T23:31:49.137Z,97.10
2022-10-13T23:34:15.476Z,97.19
2022-10-13T23:36:41.843Z,97.19
2022-10-13T23:39:08.228Z,97.70
2022-10-13T23:41:34.564Z,97.78
2022-10-13T23:44:00.909Z,97.90
2022-10-13T23:46:27.221Z,97.99
2022-10-13T23:48:53.561Z,97.96
2022-10-13T23:51:22.232Z,97.71
2022-10-13T23:53:48.962Z,97.62
2022-10-13T23:56:15.672Z,97.66
2022-10-13T23:58:43.288Z,97.47
